Time;durP1;ratioP1;P1;durP2;ratioP2;P2;SDS_P1;SDS_P2;PMS_P1;PMS_P2;Temp;Humidity;BMP_temperature;BMP_pressure;BME280_temperature;BME280_humidity;BME280_pressure;Samples;Min_cycle;Max_cycle;Signal;HPM_P1;HPM_P2
2023/10/27 00:00:15;;;;;;;8.93;5.30;;;;;;;;;;706229;27;860;-63
2023/10/27 00:00:35;;;;;;;8.83;5.23;;;;;;;;;;705553;27;951;-63
2023/10/27 00:00:57;;;;;;;9.30;5.47;;;;;;;;;;704635;27;4332;-63
2023/10/27 00:01:17;;;;;;;9.02;5.00;;;;;;;;;;705400;27;1270;-63
2023/10/27 00:01:38;;;;;;;8.95;5.20;;;;;;;;;;706187;27;1081;-63
2023/10/27 00:01:58;;;;;;;9.30;5.10;;;;;;;;;;704174;27;1907;-63
2023/10/27 00:02:18;;;;;;;8.38;4.70;;;;;;;;;;705172;27;856;-63
2023/10/27 00:02:39;;;;;;;8.50;5.00;;;;;;;;;;705240;27;955;-63
2023/10/27 00:02:59;;;;;;;7.97;5.50;;;;;;;;;;701013;28;1668;-62
2023/10/27 00:03:19;;;;;;;7.97;4.95;;;;;;;;;;702655;28;1226;-63
2023/10/27 00:03:39;;;;;;;7.13;4.90;;;;;;;;;;703168;28;931;-63
2023/10/27 00:04:00;;;;;;;9.30;5.20;;;;;;;;;;701778;28;4640;-63
2023/10/27 00:04:20;;;;;;;9.90;5.20;;;;;;;;;;702692;28;946;-63
2023/10/27 00:04:40;;;;;;;8.90;5.07;;;;;;;;;;703534;28;876;-63
2023/10/27 00:05:01;;;;;;;11.13;5.13;;;;;;;;;;704836;27;1731;-63
2023/10/27 00:05:21;;;;;;;9.15;5.00;;;;;;;;;;702965;28;1016;-63
2023/10/27 00:05:41;;;;;;;10.37;5.50;;;;;;;;;;703033;28;871;-63
2023/10/27 00:06:02;;;;;;;9.80;5.23;;;;;;;;;;701022;28;1444;-63
2023/10/27 00:06:22;;;;;;;9.52;4.90;;;;;;;;;;702759;28;860;-63
2023/10/27 00:06:42;;;;;;;9.97;5.10;;;;;;;;;;703249;28;1510;-63
2023/10/27 00:07:03;;;;;;;9.20;5.30;;;;;;;;;;701395;28;4506;-63
2023/10/27 00:07:23;;;;;;;10.68;5.40;;;;;;;;;;702330;28;902;-63
2023/10/27 00:07:43;;;;;;;8.90;4.97;;;;;;;;;;703335;28;827;-64
2023/10/27 00:08:03;;;;;;;8.90;4.90;;;;;;;;;;702266;27;2088;-63
2023/10/27 00:08:24;;;;;;;8.77;4.97;;;;;;;;;;705200;27;1073;-63
2023/10/27 00:08:44;;;;;;;9.60;5.20;;;;;;;;;;706594;27;911;-63
2023/10/27 00:09:05;;;;;;;9.30;5.10;;;;;;;;;;704583;27;1857;-63
2023/10/27 00:09:25;;;;;;;9.17;5.20;;;;;;;;;;702210;28;831;-64
2023/10/27 00:09:45;;;;;;;10.40;5.20;;;;;;;;;;702195;28;736;-63
2023/10/27 00:10:07;;;;;;;8.95;5.15;;;;;;;;;;698988;28;4519;-63
2023/10/27 00:10:28;;;;;;;7.78;5.03;;;;;;;;;;700152;28;1041;-63
2023/10/27 00:10:48;;;;;;;9.50;5.40;;;;;;;;;;700888;28;804;-63
2023/10/27 00:11:09;;;;;;;9.43;5.30;;;;;;;;;;700606;28;2062;-63
2023/10/27 00:11:29;;;;;;;10.33;5.60;;;;;;;;;;703187;28;884;-63
2023/10/27 00:11:50;;;;;;;9.13;5.22;;;;;;;;;;701824;27;2438;-63
2023/10/27 00:12:10;;;;;;;8.30;4.70;;;;;;;;;;704184;28;856;-63
2023/10/27 00:12:30;;;;;;;8.43;5.07;;;;;;;;;;703157;28;979;-63
2023/10/27 00:12:51;;;;;;;8.77;5.07;;;;;;;;;;700969;28;917;-63
2023/10/27 00:13:11;;;;;;;8.85;5.18;;;;;;;;;;699599;28;4451;-63
2023/10/27 00:13:32;;;;;;;8.97;4.97;;;;;;;;;;700670;28;1322;-63
2023/10/27 00:13:52;;;;;;;9.50;4.88;;;;;;;;;;696110;28;1490;-63
2023/10/27 00:14:12;;;;;;;8.20;4.70;;;;;;;;;;701543;28;852;-63
2023/10/27 00:14:33;;;;;;;8.75;5.00;;;;;;;;;;701385;28;807;-63
2023/10/27 00:14:54;;;;;;;8.73;4.90;;;;;;;;;;700539;28;1304;-63
2023/10/27 00:15:14;;;;;;;9.07;4.77;;;;;;;;;;703205;28;1965;-63
2023/10/27 00:15:34;;;;;;;9.47;5.20;;;;;;;;;;703310;28;1135;-63
2023/10/27 00:15:55;;;;;;;9.20;5.03;;;;;;;;;;703938;27;4418;-63
2023/10/27 00:16:15;;;;;;;8.27;5.00;;;;;;;;;;706597;27;899;-63
2023/10/27 00:16:35;;;;;;;9.43;5.38;;;;;;;;;;706338;27;3860;-63
2023/10/27 00:16:57;;;;;;;9.50;4.83;;;;;;;;;;705016;27;2522;-62
2023/10/27 00:17:17;;;;;;;8.60;4.85;;;;;;;;;;704562;27;855;-63
2023/10/27 00:17:37;;;;;;;10.77;4.83;;;;;;;;;;706820;27;895;-64
2023/10/27 00:17:58;;;;;;;8.43;4.57;;;;;;;;;;703547;27;1603;-63
2023/10/27 00:18:18;;;;;;;12.37;5.10;;;;;;;;;;704389;28;1459;-63
2023/10/27 00:18:38;;;;;;;11.70;5.43;;;;;;;;;;703834;28;1022;-63
2023/10/27 00:18:58;;;;;;;8.57;5.43;;;;;;;;;;701839;28;4366;-63
2023/10/27 00:19:19;;;;;;;8.80;4.77;;;;;;;;;;704550;28;871;-63
2023/10/27 00:19:39;;;;;;;8.45;4.80;;;;;;;;;;704127;28;781;-63
2023/10/27 00:19:59;;;;;;;10.00;5.07;;;;;;;;;;701822;28;2357;-63
2023/10/27 00:20:20;;;;;;;10.43;4.77;;;;;;;;;;706320;27;954;-63
2023/10/27 00:20:40;;;;;;;9.73;4.90;;;;;;;;;;705569;27;947;-63
2023/10/27 00:21:00;;;;;;;8.90;4.90;;;;;;;;;;703128;28;2562;-63
2023/10/27 00:21:20;;;;;;;7.33;4.60;;;;;;;;;;705358;27;820;-63
2023/10/27 00:21:41;;;;;;;7.13;4.40;;;;;;;;;;707068;27;803;-63
2023/10/27 00:22:01;;;;;;;7.97;4.50;;;;;;;;;;703236;27;4315;-63
2023/10/27 00:22:22;;;;;;;8.30;4.70;;;;;;;;;;706185;27;1188;-63
2023/10/27 00:22:42;;;;;;;7.90;4.57;;;;;;;;;;705315;27;876;-64
2023/10/27 00:23:02;;;;;;;8.07;4.33;;;;;;;;;;704885;27;1791;-63
2023/10/27 00:23:23;;;;;;;9.57;4.75;;;;;;;;;;706976;27;1216;-63
2023/10/27 00:23:43;;;;;;;9.10;4.90;;;;;;;;;;706417;27;990;-63
2023/10/27 00:24:03;;;;;;;7.60;4.60;;;;;;;;;;701090;28;1747;-63
2023/10/27 00:24:24;;;;;;;7.63;4.32;;;;;;;;;;701731;28;943;-63
2023/10/27 00:24:44;;;;;;;7.70;4.50;;;;;;;;;;703994;28;984;-63
2023/10/27 00:25:05;;;;;;;9.75;4.75;;;;;;;;;;701636;28;4513;-63
2023/10/27 00:25:25;;;;;;;8.27;4.63;;;;;;;;;;700523;28;925;-63
2023/10/27 00:25:45;;;;;;;9.20;4.65;;;;;;;;;;700603;28;919;-63
2023/10/27 00:26:05;;;;;;;7.83;4.40;;;;;;;;;;702696;28;1407;-63
2023/10/27 00:26:26;;;;;;;10.17;5.10;;;;;;;;;;701606;28;978;-63
2023/10/27 00:26:47;;;;;;;9.52;4.97;;;;;;;;;;702921;28;833;-63
2023/10/27 00:27:07;;;;;;;7.03;4.18;;;;;;;;;;702648;28;1923;-63
2023/10/27 00:27:28;;;;;;;7.77;4.27;;;;;;;;;;703632;28;826;-63
2023/10/27 00:27:48;;;;;;;7.65;4.38;;;;;;;;;;702122;28;915;-63
2023/10/27 00:28:08;;;;;;;8.10;4.60;;;;;;;;;;700402;28;4356;-63
2023/10/27 00:28:29;;;;;;;10.60;4.63;;;;;;;;;;701936;28;893;-63
2023/10/27 00:28:50;;;;;;;10.30;4.70;;;;;;;;;;700612;28;1175;-63
2023/10/27 00:29:10;;;;;;;8.70;4.40;;;;;;;;;;698769;28;2174;-63
2023/10/27 00:29:30;;;;;;;7.77;4.30;;;;;;;;;;702753;28;1542;-63
2023/10/27 00:29:51;;;;;;;9.40;4.53;;;;;;;;;;700852;28;1730;-65
2023/10/27 00:30:11;;;;;;;8.10;4.50;;;;;;;;;;701800;28;845;-63
2023/10/27 00:30:32;;;;;;;7.85;4.28;;;;;;;;;;700517;28;953;-63
2023/10/27 00:30:52;;;;;;;7.97;4.40;;;;;;;;;;701906;28;1921;-63
2023/10/27 00:31:13;;;;;;;8.18;4.53;;;;;;;;;;702299;28;4360;-63
2023/10/27 00:31:34;;;;;;;7.70;4.43;;;;;;;;;;702812;28;903;-63
2023/10/27 00:31:54;;;;;;;8.07;4.70;;;;;;;;;;700333;28;1810;-63
2023/10/27 00:32:14;;;;;;;7.10;4.50;;;;;;;;;;701183;28;1304;-63
2023/10/27 00:32:36;;;;;;;9.15;4.78;;;;;;;;;;699818;28;881;-63
2023/10/27 00:32:56;;;;;;;10.15;4.65;;;;;;;;;;699893;28;1450;-63
2023/10/27 00:33:16;;;;;;;10.57;4.65;;;;;;;;;;701694;28;886;-63
2023/10/27 00:33:37;;;;;;;9.87;5.03;;;;;;;;;;701294;28;959;-63
2023/10/27 00:33:57;;;;;;;8.83;4.73;;;;;;;;;;699244;28;4244;-63
2023/10/27 00:34:17;;;;;;;7.45;4.72;;;;;;;;;;702573;28;1655;-63
2023/10/27 00:34:37;;;;;;;9.43;4.90;;;;;;;;;;702503;28;931;-63
2023/10/27 00:34:58;;;;;;;9.23;4.60;;;;;;;;;;701578;28;2717;-64
2023/10/27 00:35:18;;;;;;;9.25;4.88;;;;;;;;;;702331;28;1997;-63
2023/10/27 00:35:38;;;;;;;9.97;4.90;;;;;;;;;;701128;28;1057;-63
2023/10/27 00:35:58;;;;;;;10.10;4.73;;;;;;;;;;699681;28;1800;-63
2023/10/27 00:36:19;;;;;;;9.98;4.70;;;;;;;;;;697507;28;1314;-63
2023/10/27 00:36:39;;;;;;;8.50;4.50;;;;;;;;;;697150;28;809;-63
2023/10/27 00:36:59;;;;;;;8.70;4.30;;;;;;;;;;696311;28;4570;-63
2023/10/27 00:37:19;;;;;;;8.43;4.50;;;;;;;;;;698267;28;1234;-63
2023/10/27 00:37:40;;;;;;;9.77;4.50;;;;;;;;;;699697;28;1295;-63
2023/10/27 00:38:01;;;;;;;9.97;4.80;;;;;;;;;;699280;28;1858;-63
2023/10/27 00:38:21;;;;;;;8.80;4.77;;;;;;;;;;701715;28;908;-63
2023/10/27 00:38:41;;;;;;;8.47;4.73;;;;;;;;;;699871;28;1433;-63
2023/10/27 00:39:03;;;;;;;9.25;4.60;;;;;;;;;;696867;28;5126;-64
2023/10/27 00:39:23;;;;;;;8.05;4.50;;;;;;;;;;696019;28;971;-63
2023/10/27 00:39:44;;;;;;;11.68;4.78;;;;;;;;;;695558;28;932;-63
2023/10/27 00:40:04;;;;;;;8.00;4.30;;;;;;;;;;693435;28;4384;-63
2023/10/27 00:40:24;;;;;;;8.88;4.30;;;;;;;;;;696407;28;856;-63
2023/10/27 00:40:45;;;;;;;8.67;4.30;;;;;;;;;;698337;28;1360;-63
2023/10/27 00:41:05;;;;;;;7.70;4.38;;;;;;;;;;697286;28;2370;-63
2023/10/27 00:41:25;;;;;;;10.73;5.40;;;;;;;;;;701684;28;820;-63
2023/10/27 00:41:46;;;;;;;9.70;4.80;;;;;;;;;;702804;28;852;-63
2023/10/27 00:42:06;;;;;;;9.97;5.07;;;;;;;;;;700514;28;1451;-63
2023/10/27 00:42:26;;;;;;;9.73;4.90;;;;;;;;;;702964;27;1280;-63
2023/10/27 00:42:47;;;;;;;9.40;4.73;;;;;;;;;;703014;28;1005;-63
2023/10/27 00:43:07;;;;;;;10.20;4.80;;;;;;;;;;699981;28;4329;-64
2023/10/27 00:43:27;;;;;;;9.57;4.93;;;;;;;;;;700974;28;1319;-63
2023/10/27 00:43:47;;;;;;;8.90;4.50;;;;;;;;;;700560;28;925;-63
2023/10/27 00:44:08;;;;;;;9.23;4.70;;;;;;;;;;699192;28;1734;-63
2023/10/27 00:44:28;;;;;;;10.10;4.87;;;;;;;;;;700471;28;884;-63
2023/10/27 00:44:48;;;;;;;9.10;5.00;;;;;;;;;;699607;28;1234;-63
2023/10/27 00:45:09;;;;;;;8.90;4.40;;;;;;;;;;696139;28;1574;-63
2023/10/27 00:45:29;;;;;;;8.10;4.60;;;;;;;;;;700580;28;768;-63
2023/10/27 00:45:50;;;;;;;9.00;4.90;;;;;;;;;;700600;28;1009;-63
2023/10/27 00:46:10;;;;;;;8.38;4.80;;;;;;;;;;701028;28;4327;-63
2023/10/27 00:46:30;;;;;;;8.87;4.43;;;;;;;;;;703082;28;848;-63
2023/10/27 00:46:51;;;;;;;8.98;4.20;;;;;;;;;;703270;28;832;-63
2023/10/27 00:47:11;;;;;;;9.23;4.40;;;;;;;;;;699885;28;2012;-63
2023/10/27 00:47:32;;;;;;;12.30;4.40;;;;;;;;;;701088;28;1220;-63
2023/10/27 00:47:52;;;;;;;9.90;4.07;;;;;;;;;;701149;28;761;-63
2023/10/27 00:48:13;;;;;;;8.50;4.07;;;;;;;;;;698201;28;1469;-63
2023/10/27 00:48:34;;;;;;;9.32;4.38;;;;;;;;;;698461;28;762;-63
2023/10/27 00:48:54;;;;;;;10.23;4.35;;;;;;;;;;697180;28;4574;-63
2023/10/27 00:49:15;;;;;;;10.03;4.30;;;;;;;;;;702050;28;1017;-63
2023/10/27 00:49:35;;;;;;;8.00;4.40;;;;;;;;;;700418;28;942;-63
2023/10/27 00:49:56;;;;;;;9.70;4.43;;;;;;;;;;700284;28;1929;-63
2023/10/27 00:50:16;;;;;;;9.73;4.50;;;;;;;;;;698766;28;1530;-63
2023/10/27 00:50:37;;;;;;;8.47;4.70;;;;;;;;;;695200;28;1230;-63
2023/10/27 00:50:58;;;;;;;10.27;4.88;;;;;;;;;;696870;28;1900;-63
2023/10/27 00:51:18;;;;;;;8.43;4.43;;;;;;;;;;695405;28;1176;-63
2023/10/27 00:51:38;;;;;;;10.53;4.40;;;;;;;;;;695785;28;944;-63
2023/10/27 00:51:59;;;;;;;10.07;4.23;;;;;;;;;;691246;28;4748;-63
2023/10/27 00:52:20;;;;;;;10.15;4.53;;;;;;;;;;698604;28;1018;-63
2023/10/27 00:52:40;;;;;;;8.25;4.35;;;;;;;;;;698343;28;1084;-63
2023/10/27 00:53:01;;;;;;;7.93;4.43;;;;;;;;;;694669;28;1689;-63
2023/10/27 00:53:21;;;;;;;8.83;4.77;;;;;;;;;;692463;28;1278;-62
2023/10/27 00:53:41;;;;;;;9.10;4.80;;;;;;;;;;695494;28;1371;-63
2023/10/27 00:54:02;;;;;;;9.33;4.20;;;;;;;;;;693235;28;2223;-63
2023/10/27 00:54:23;;;;;;;8.63;4.13;;;;;;;;;;692977;28;1460;-63
2023/10/27 00:54:45;;;;;;;6.55;4.00;;;;;;;;;;692837;28;943;-63
2023/10/27 00:55:06;;;;;;;10.63;4.22;;;;;;;;;;694774;28;4366;-62
2023/10/27 00:55:26;;;;;;;9.57;4.20;;;;;;;;;;698418;28;903;-62
2023/10/27 00:55:48;;;;;;;8.00;4.40;;;;;;;;;;696060;28;1128;-63
2023/10/27 00:56:09;;;;;;;8.60;4.10;;;;;;;;;;696894;28;2592;-62
2023/10/27 00:56:29;;;;;;;9.97;4.47;;;;;;;;;;698737;28;801;-63
2023/10/27 00:56:49;;;;;;;7.40;3.97;;;;;;;;;;697952;28;1363;-62
2023/10/27 00:57:10;;;;;;;8.07;4.57;;;;;;;;;;697920;28;1841;-62
2023/10/27 00:57:31;;;;;;;7.70;4.18;;;;;;;;;;700508;28;979;-62
2023/10/27 00:57:52;;;;;;;7.18;4.10;;;;;;;;;;701960;28;978;-62
2023/10/27 00:58:13;;;;;;;7.90;4.07;;;;;;;;;;700915;28;4365;-63
2023/10/27 00:58:33;;;;;;;8.02;4.38;;;;;;;;;;702658;28;860;-63
2023/10/27 00:58:54;;;;;;;9.43;4.47;;;;;;;;;;700710;28;1933;-63
2023/10/27 00:59:15;;;;;;;8.88;4.20;;;;;;;;;;701411;28;1464;-62
2023/10/27 00:59:36;;;;;;;7.85;4.10;;;;;;;;;;697873;28;1523;-63
2023/10/27 00:59:56;;;;;;;9.23;4.40;;;;;;;;;;694026;28;2418;-63
2023/10/27 01:00:17;;;;;;;9.70;4.47;;;;;;;;;;692753;28;849;-63
2023/10/27 01:00:37;;;;;;;9.30;4.47;;;;;;;;;;693320;28;975;-63
2023/10/27 01:01:00;;;;;;;8.60;4.35;;;;;;;;;;693921;28;4364;-63
2023/10/27 01:01:21;;;;;;;16.80;5.60;;;;;;;;;;697099;28;1400;-63
2023/10/27 01:01:42;;;;;;;10.80;4.43;;;;;;;;;;700242;28;1330;-63
2023/10/27 01:02:02;;;;;;;9.10;4.22;;;;;;;;;;700600;28;1950;-63
2023/10/27 01:02:23;;;;;;;10.30;4.38;;;;;;;;;;700168;28;1317;-63
2023/10/27 01:02:43;;;;;;;9.50;4.23;;;;;;;;;;696918;28;1351;-63
2023/10/27 01:03:04;;;;;;;9.40;4.40;;;;;;;;;;698780;28;2487;-63
2023/10/27 01:03:24;;;;;;;8.03;4.13;;;;;;;;;;699706;28;1361;-63
2023/10/27 01:03:44;;;;;;;8.82;3.88;;;;;;;;;;697668;28;1147;-63
2023/10/27 01:04:05;;;;;;;8.43;3.80;;;;;;;;;;696216;28;5389;-62
2023/10/27 01:04:25;;;;;;;7.97;3.80;;;;;;;;;;696001;28;1223;-63
2023/10/27 01:04:46;;;;;;;8.33;4.00;;;;;;;;;;700974;28;896;-62
2023/10/27 01:05:06;;;;;;;9.60;4.00;;;;;;;;;;696200;28;2395;-63
2023/10/27 01:05:26;;;;;;;10.50;4.10;;;;;;;;;;693339;28;1366;-63
2023/10/27 01:05:46;;;;;;;8.97;3.80;;;;;;;;;;692612;28;1224;-63
2023/10/27 01:06:07;;;;;;;9.97;4.03;;;;;;;;;;691754;28;1723;-63
2023/10/27 01:06:27;;;;;;;9.55;4.47;;;;;;;;;;695592;28;1013;-62
2023/10/27 01:06:47;;;;;;;8.20;4.13;;;;;;;;;;695878;28;1002;-62
2023/10/27 01:07:08;;;;;;;9.73;3.97;;;;;;;;;;696722;28;7356;-63
2023/10/27 01:07:28;;;;;;;9.87;3.87;;;;;;;;;;699597;28;891;-63
2023/10/27 01:07:48;;;;;;;8.17;4.00;;;;;;;;;;700395;28;1214;-63
2023/10/27 01:08:09;;;;;;;8.33;4.00;;;;;;;;;;701205;28;1805;-63
2023/10/27 01:08:29;;;;;;;10.00;3.80;;;;;;;;;;703074;27;1422;-63
2023/10/27 01:08:49;;;;;;;11.73;3.80;;;;;;;;;;702390;28;812;-63
2023/10/27 01:09:10;;;;;;;8.55;3.92;;;;;;;;;;696665;28;1876;-62
2023/10/27 01:09:30;;;;;;;10.10;4.10;;;;;;;;;;697408;28;812;-63
2023/10/27 01:09:51;;;;;;;10.20;4.32;;;;;;;;;;700167;28;863;-63
2023/10/27 01:10:11;;;;;;;10.07;4.28;;;;;;;;;;698157;28;4283;-63
2023/10/27 01:10:32;;;;;;;9.30;3.80;;;;;;;;;;699033;28;839;-62
2023/10/27 01:10:53;;;;;;;8.40;3.92;;;;;;;;;;700919;28;950;-63
2023/10/27 01:11:14;;;;;;;8.27;3.97;;;;;;;;;;704631;27;1856;-63
2023/10/27 01:11:34;;;;;;;8.77;4.15;;;;;;;;;;705223;27;791;-62
2023/10/27 01:11:55;;;;;;;8.13;3.93;;;;;;;;;;703573;28;1299;-63
2023/10/27 01:12:15;;;;;;;9.03;3.83;;;;;;;;;;705090;27;842;-63
2023/10/27 01:12:35;;;;;;;9.57;3.95;;;;;;;;;;705298;27;1028;-64
2023/10/27 01:12:56;;;;;;;10.23;3.97;;;;;;;;;;699904;28;4284;-63
2023/10/27 01:13:16;;;;;;;7.80;3.53;;;;;;;;;;703878;28;1160;-63
2023/10/27 01:13:36;;;;;;;6.33;3.40;;;;;;;;;;699811;28;1174;-63
2023/10/27 01:13:57;;;;;;;7.23;3.63;;;;;;;;;;697725;28;1939;-62
2023/10/27 01:14:17;;;;;;;6.30;3.70;;;;;;;;;;697936;28;983;-63
2023/10/27 01:14:37;;;;;;;8.60;3.60;;;;;;;;;;698565;28;1458;-62
2023/10/27 01:14:58;;;;;;;10.57;3.93;;;;;;;;;;698731;28;1801;-63
2023/10/27 01:15:18;;;;;;;11.73;4.00;;;;;;;;;;698694;28;2274;-62
2023/10/27 01:15:38;;;;;;;12.30;3.87;;;;;;;;;;700451;28;936;-62
2023/10/27 01:15:59;;;;;;;10.13;4.00;;;;;;;;;;699120;28;4506;-63
2023/10/27 01:16:20;;;;;;;9.20;3.70;;;;;;;;;;703880;28;887;-62
2023/10/27 01:16:40;;;;;;;8.13;3.22;;;;;;;;;;701352;28;871;-60
2023/10/27 01:17:00;;;;;;;8.32;3.33;;;;;;;;;;695931;28;2239;-62
2023/10/27 01:17:21;;;;;;;8.10;3.77;;;;;;;;;;698869;28;844;-62
2023/10/27 01:17:41;;;;;;;8.57;3.53;;;;;;;;;;698642;28;1228;-62
2023/10/27 01:18:02;;;;;;;9.27;3.55;;;;;;;;;;696634;28;1825;-62
2023/10/27 01:18:22;;;;;;;7.40;3.57;;;;;;;;;;697907;28;820;-62
2023/10/27 01:18:43;;;;;;;8.27;4.00;;;;;;;;;;701597;28;1332;-62
2023/10/27 01:19:03;;;;;;;7.25;3.25;;;;;;;;;;700134;28;4498;-62
2023/10/27 01:19:24;;;;;;;9.97;3.37;;;;;;;;;;702722;28;903;-63
2023/10/27 01:19:44;;;;;;;9.00;3.40;;;;;;;;;;701983;28;800;-63
2023/10/27 01:20:05;;;;;;;8.73;3.47;;;;;;;;;;698401;28;1430;-63
2023/10/27 01:20:25;;;;;;;8.83;3.40;;;;;;;;;;702496;28;1256;-63
2023/10/27 01:20:45;;;;;;;8.07;3.50;;;;;;;;;;703601;28;848;-63
2023/10/27 01:21:05;;;;;;;11.93;3.60;;;;;;;;;;700928;28;1487;-63
2023/10/27 01:21:26;;;;;;;9.17;3.20;;;;;;;;;;703476;28;928;-63
2023/10/27 01:21:46;;;;;;;8.27;3.43;;;;;;;;;;699416;28;1520;-63
2023/10/27 01:22:06;;;;;;;8.27;3.37;;;;;;;;;;701416;28;4501;-63
2023/10/27 01:22:27;;;;;;;9.40;3.57;;;;;;;;;;700618;28;1331;-63
2023/10/27 01:22:47;;;;;;;9.60;3.63;;;;;;;;;;700442;28;923;-63
2023/10/27 01:23:08;;;;;;;8.10;3.17;;;;;;;;;;696970;28;2115;-63
2023/10/27 01:23:28;;;;;;;9.73;3.37;;;;;;;;;;698596;28;1384;-63
2023/10/27 01:23:48;;;;;;;9.97;3.83;;;;;;;;;;698426;28;1121;-63
2023/10/27 01:24:09;;;;;;;9.65;3.85;;;;;;;;;;699417;28;1722;-63
2023/10/27 01:24:29;;;;;;;9.17;3.80;;;;;;;;;;699264;28;896;-63
2023/10/27 01:24:50;;;;;;;11.80;3.90;;;;;;;;;;700166;28;773;-63
2023/10/27 01:25:10;;;;;;;9.43;3.30;;;;;;;;;;698994;28;4318;-62
2023/10/27 01:25:31;;;;;;;8.85;3.22;;;;;;;;;;697924;28;1630;-63
2023/10/27 01:25:51;;;;;;;9.40;3.70;;;;;;;;;;697151;28;913;-63
2023/10/27 01:26:11;;;;;;;8.70;3.58;;;;;;;;;;692805;28;2426;-63
2023/10/27 01:26:32;;;;;;;7.43;3.10;;;;;;;;;;695919;28;918;-63
2023/10/27 01:26:52;;;;;;;10.63;3.07;;;;;;;;;;694018;28;1156;-63
2023/10/27 01:27:12;;;;;;;9.65;3.45;;;;;;;;;;693314;28;1853;-62
2023/10/27 01:27:33;;;;;;;6.47;3.10;;;;;;;;;;698193;28;888;-63
2023/10/27 01:27:53;;;;;;;8.40;3.50;;;;;;;;;;696874;28;774;-63
2023/10/27 01:28:13;;;;;;;7.75;3.17;;;;;;;;;;697886;28;4628;-63
2023/10/27 01:28:34;;;;;;;6.50;3.15;;;;;;;;;;697265;28;1594;-63
2023/10/27 01:28:55;;;;;;;9.23;3.60;;;;;;;;;;700844;28;1373;-63
2023/10/27 01:29:15;;;;;;;10.60;3.30;;;;;;;;;;701998;28;1568;-63
2023/10/27 01:29:35;;;;;;;11.00;3.30;;;;;;;;;;701903;28;958;-63
2023/10/27 01:29:55;;;;;;;10.43;3.33;;;;;;;;;;700359;28;884;-63
2023/10/27 01:30:16;;;;;;;8.18;3.30;;;;;;;;;;699201;28;2453;-64
2023/10/27 01:30:36;;;;;;;7.30;3.10;;;;;;;;;;702543;28;1308;-63
2023/10/27 01:30:57;;;;;;;7.57;3.28;;;;;;;;;;698702;28;4510;-64
2023/10/27 01:31:17;;;;;;;8.20;3.13;;;;;;;;;;700893;28;827;-63
2023/10/27 01:31:38;;;;;;;6.80;3.05;;;;;;;;;;701222;28;924;-62
2023/10/27 01:31:58;;;;;;;6.93;3.13;;;;;;;;;;701157;28;1488;-63
2023/10/27 01:32:18;;;;;;;7.87;3.20;;;;;;;;;;702646;28;991;-63
2023/10/27 01:32:40;;;;;;;9.53;3.30;;;;;;;;;;698804;28;1216;-63
2023/10/27 01:33:00;;;;;;;9.82;3.15;;;;;;;;;;698571;28;1812;-63
2023/10/27 01:33:21;;;;;;;8.63;3.60;;;;;;;;;;700037;28;939;-63
2023/10/27 01:33:42;;;;;;;8.88;3.40;;;;;;;;;;698822;28;867;-63
2023/10/27 01:34:02;;;;;;;8.33;3.10;;;;;;;;;;698197;28;4514;-63
2023/10/27 01:34:22;;;;;;;7.80;3.00;;;;;;;;;;701613;28;939;-63
2023/10/27 01:34:43;;;;;;;9.77;3.30;;;;;;;;;;696661;28;1226;-63
2023/10/27 01:35:03;;;;;;;8.13;3.40;;;;;;;;;;696324;28;1703;-63
2023/10/27 01:35:23;;;;;;;9.10;3.42;;;;;;;;;;697493;28;1971;-63
2023/10/27 01:35:44;;;;;;;10.77;3.40;;;;;;;;;;696538;28;963;-63
2023/10/27 01:36:04;;;;;;;8.55;3.22;;;;;;;;;;695846;28;2665;-62
2023/10/27 01:36:25;;;;;;;9.17;3.07;;;;;;;;;;696955;28;852;-63
2023/10/27 01:36:45;;;;;;;9.45;3.20;;;;;;;;;;700965;28;966;-63
2023/10/27 01:37:05;;;;;;;10.50;3.20;;;;;;;;;;698793;28;4462;-63
2023/10/27 01:37:26;;;;;;;10.07;3.17;;;;;;;;;;705740;27;962;-63
2023/10/27 01:37:47;;;;;;;7.90;3.03;;;;;;;;;;701676;28;1605;-63
2023/10/27 01:38:07;;;;;;;7.20;3.10;;;;;;;;;;701397;28;2312;-63
2023/10/27 01:38:27;;;;;;;8.27;3.33;;;;;;;;;;701817;28;926;-63
2023/10/27 01:38:47;;;;;;;11.40;3.37;;;;;;;;;;700615;28;1352;-63
2023/10/27 01:39:08;;;;;;;8.45;3.33;;;;;;;;;;694734;28;2394;-63
2023/10/27 01:39:28;;;;;;;7.17;3.17;;;;;;;;;;694414;28;1647;-63
2023/10/27 01:39:49;;;;;;;10.60;3.33;;;;;;;;;;695807;28;1153;-63
2023/10/27 01:40:10;;;;;;;8.73;3.20;;;;;;;;;;690660;28;4591;-63
2023/10/27 01:40:30;;;;;;;8.57;3.20;;;;;;;;;;693194;28;932;-63
2023/10/27 01:40:50;;;;;;;11.75;3.35;;;;;;;;;;695899;28;1105;-63
2023/10/27 01:41:11;;;;;;;10.17;3.37;;;;;;;;;;696964;28;1791;-63
2023/10/27 01:41:31;;;;;;;8.87;3.23;;;;;;;;;;701653;28;915;-63
2023/10/27 01:41:51;;;;;;;9.73;3.50;;;;;;;;;;704144;28;981;-63
2023/10/27 01:42:11;;;;;;;9.37;2.90;;;;;;;;;;703999;27;1088;-63
2023/10/27 01:42:34;;;;;;;10.43;3.03;;;;;;;;;;704483;28;1226;-63
2023/10/27 01:42:54;;;;;;;8.43;3.05;;;;;;;;;;701315;28;4400;-62
2023/10/27 01:43:16;;;;;;;7.93;3.40;;;;;;;;;;700402;28;2557;-63
2023/10/27 01:43:37;;;;;;;8.82;3.40;;;;;;;;;;698416;28;1464;-63
2023/10/27 01:43:57;;;;;;;8.33;3.53;;;;;;;;;;696894;28;825;-63
2023/10/27 01:44:17;;;;;;;8.73;3.17;;;;;;;;;;693204;28;1327;-64
2023/10/27 01:44:38;;;;;;;8.70;3.13;;;;;;;;;;695572;28;1188;-63
2023/10/27 01:44:59;;;;;;;8.32;3.10;;;;;;;;;;694208;28;1743;-63
2023/10/27 01:45:19;;;;;;;7.85;3.00;;;;;;;;;;695548;28;840;-63
2023/10/27 01:45:39;;;;;;;8.43;3.20;;;;;;;;;;698128;28;748;-63
2023/10/27 01:46:00;;;;;;;9.63;3.75;;;;;;;;;;698826;28;4362;-63
2023/10/27 01:46:20;;;;;;;9.47;3.90;;;;;;;;;;703084;28;919;-63
2023/10/27 01:46:40;;;;;;;9.33;3.43;;;;;;;;;;699717;28;888;-62
2023/10/27 01:47:01;;;;;;;10.07;3.40;;;;;;;;;;701865;28;1714;-63
2023/10/27 01:47:21;;;;;;;8.25;3.40;;;;;;;;;;702045;28;922;-63
2023/10/27 01:47:42;;;;;;;7.97;3.33;;;;;;;;;;699511;28;1237;-63
2023/10/27 01:48:03;;;;;;;8.87;3.20;;;;;;;;;;699604;28;2278;-63
2023/10/27 01:48:24;;;;;;;9.98;3.20;;;;;;;;;;698406;28;1152;-63
2023/10/27 01:48:44;;;;;;;9.70;3.17;;;;;;;;;;701392;28;820;-64
2023/10/27 01:49:04;;;;;;;10.35;3.40;;;;;;;;;;698826;28;4328;-63
2023/10/27 01:49:25;;;;;;;9.43;3.17;;;;;;;;;;701207;28;1376;-63
2023/10/27 01:49:45;;;;;;;8.70;3.00;;;;;;;;;;700730;28;828;-63
2023/10/27 01:50:06;;;;;;;7.28;3.00;;;;;;;;;;697323;28;2175;-63
2023/10/27 01:50:27;;;;;;;7.25;3.08;;;;;;;;;;697963;28;868;-63
2023/10/27 01:50:48;;;;;;;8.83;3.53;;;;;;;;;;698623;28;824;-63
2023/10/27 01:51:08;;;;;;;8.98;3.30;;;;;;;;;;697241;28;2086;-63
2023/10/27 01:51:28;;;;;;;9.63;3.00;;;;;;;;;;698227;28;864;-63
2023/10/27 01:51:49;;;;;;;9.47;3.20;;;;;;;;;;695380;28;1266;-63
2023/10/27 01:52:09;;;;;;;8.13;3.22;;;;;;;;;;696079;28;4301;-63
2023/10/27 01:52:29;;;;;;;10.57;3.50;;;;;;;;;;694184;28;1542;-64
2023/10/27 01:52:50;;;;;;;8.98;3.60;;;;;;;;;;694247;28;1356;-63
2023/10/27 01:53:10;;;;;;;7.80;3.30;;;;;;;;;;696689;28;1772;-63
2023/10/27 01:53:31;;;;;;;8.50;3.20;;;;;;;;;;698737;28;951;-63
2023/10/27 01:53:51;;;;;;;8.85;3.30;;;;;;;;;;698314;28;884;-63
2023/10/27 01:54:11;;;;;;;6.50;3.00;;;;;;;;;;697482;28;2272;-63
2023/10/27 01:54:32;;;;;;;8.10;3.20;;;;;;;;;;699761;28;1351;-63
2023/10/27 01:54:53;;;;;;;10.77;3.70;;;;;;;;;;700943;28;868;-63
2023/10/27 01:55:13;;;;;;;8.68;3.55;;;;;;;;;;697688;28;4281;-63
2023/10/27 01:55:34;;;;;;;8.77;3.30;;;;;;;;;;699736;28;1233;-63
2023/10/27 01:55:54;;;;;;;10.60;3.50;;;;;;;;;;700684;28;876;-62
2023/10/27 01:56:14;;;;;;;9.93;3.65;;;;;;;;;;700071;28;1844;-63
2023/10/27 01:56:35;;;;;;;10.53;3.40;;;;;;;;;;702712;28;1145;-63
2023/10/27 01:56:55;;;;;;;8.57;3.20;;;;;;;;;;700458;28;1138;-63
2023/10/27 01:57:15;;;;;;;7.40;3.28;;;;;;;;;;695194;28;1764;-63
2023/10/27 01:57:36;;;;;;;7.30;3.20;;;;;;;;;;698608;28;1321;-63
2023/10/27 01:57:57;;;;;;;8.57;3.97;;;;;;;;;;697321;28;4346;-63
2023/10/27 01:58:17;;;;;;;8.20;3.60;;;;;;;;;;696694;28;1928;-63
2023/10/27 01:58:44;;;;;;;8.50;3.50;;;;;;;;;;696389;28;1211;-63
2023/10/27 01:59:05;;;;;;;8.55;3.33;;;;;;;;;;696971;28;1472;-63
2023/10/27 01:59:25;;;;;;;9.60;3.30;;;;;;;;;;700855;28;1300;-63
2023/10/27 01:59:45;;;;;;;10.20;3.30;;;;;;;;;;697904;28;1215;-63
2023/10/27 02:00:07;;;;;;;8.97;3.40;;;;;;;;;;695227;28;1863;-63
2023/10/27 02:00:32;;;;;;;7.07;3.33;;;;;;;;;;699185;28;777;-63
2023/10/27 02:00:53;;;;;;;9.33;3.43;;;;;;;;;;696675;28;1411;-63
2023/10/27 02:01:14;;;;;;;8.88;3.45;;;;;;;;;;694888;28;4464;-63
2023/10/27 02:01:34;;;;;;;7.63;3.03;;;;;;;;;;695098;28;1348;-63
2023/10/27 02:01:55;;;;;;;6.28;3.00;;;;;;;;;;695659;28;1194;-63
2023/10/27 02:02:16;;;;;;;7.50;3.10;;;;;;;;;;690499;28;2652;-63
2023/10/27 02:02:36;;;;;;;6.47;3.00;;;;;;;;;;694461;28;1475;-63
2023/10/27 02:02:56;;;;;;;7.80;3.38;;;;;;;;;;695572;28;1328;-63
2023/10/27 02:03:17;;;;;;;7.87;3.33;;;;;;;;;;692399;28;2400;-63
2023/10/27 02:03:37;;;;;;;7.30;3.17;;;;;;;;;;696746;28;1276;-63
2023/10/27 02:03:57;;;;;;;9.60;3.70;;;;;;;;;;698060;28;4330;-63
2023/10/27 02:04:20;;;;;;;9.97;3.80;;;;;;;;;;693463;28;1166;-63
2023/10/27 02:04:40;;;;;;;7.57;3.08;;;;;;;;;;698794;28;2048;-63
2023/10/27 02:05:02;;;;;;;9.13;3.40;;;;;;;;;;698881;28;2337;-63
2023/10/27 02:05:22;;;;;;;10.25;3.65;;;;;;;;;;703885;28;864;-62
2023/10/27 02:05:43;;;;;;;10.40;3.50;;;;;;;;;;703801;28;808;-62
2023/10/27 02:06:03;;;;;;;7.15;3.45;;;;;;;;;;700899;28;2578;-63
2023/10/27 02:06:25;;;;;;;8.77;3.30;;;;;;;;;;703489;28;784;-62
2023/10/27 02:06:47;;;;;;;9.20;3.50;;;;;;;;;;700924;28;1305;-63
2023/10/27 02:07:07;;;;;;;9.18;3.40;;;;;;;;;;699283;28;4311;-62